Baltimore, MD

2:21 PM EST on January 30, 2015 (GMT -0500)
Baltimore-Washington International | Change Station
CLOSE
Current Station
Airport
Location: Baltimore,
Elevation: 154 ft
Nearby Weather Stations
Active Advisory: Wind Advisory

Elev 154 ft 39.17 °N, 76.68 °W | Updated 27 minutes ago

Mostly Cloudy
Mostly Cloudy
38 °F
Feels Like 27 °F
N
24
Wind Variable Wind from WNW
Gusts 40 mph

Today
High -- | Low -- °F
--% Chance of Precip.
Yesterday
High -- | Low -- °F
Precip. -- in
7:15 AM 5:24 PM
Waxing Gibbous, 84% visible
Pressure 30.01 in
Visibility 10.0 miles
Clouds Scattered Clouds 4900 ft
Scattered Clouds 8000 ft
Mostly Cloudy 16000 ft
Windchill 27 °F
Dew Point 19 °F
Humidity 47%
Rainfall 0.00 in
Snow Depth Not available.
UV 2 out of 12
Pollen .30 out of 12
Air Quality Not available.
Flu Activity Not available.
METAR KBWI 301854Z 29021G35KT 10SM SCT049 SCT080 BKN160 03/M07 A3000 RMK AO2 PK WND 28035/1846 SNB1758E05 SLP162 VIRGA SE ACSL SW-N P0000 T00331072

More Conditions Fewer Conditions

Pressure 30.01 in
Visibility 10.0 miles
Clouds Scattered Clouds 4900 ft
Scattered Clouds 8000 ft
Mostly Cloudy 16000 ft
Windchill 27 °F
Dew Point 19 °F
Humidity 47%
Rainfall 0.00 in
Snow Depth Not available.
UV 2 out of 12
Pollen .30 out of 12
Air Quality Not available.
Flu Activity Not available.
METAR KBWI 301854Z 29021G35KT 10SM SCT049 SCT080 BKN160 03/M07 A3000 RMK AO2 PK WND 28035/1846 SNB1758E05 SLP162 VIRGA SE ACSL SW-N P0000 T00331072

More Conditions Fewer Conditions

10-Day Weather Forecast

Almanac

Astronomy

Jan. 30, 2015 Rise Set
Actual Time
Civil Twilight
Nautical Twilight
Astronomical Twilight
Moon
Length of Visible Light
Length of Day
Tomorrow will be .
, % of the Moon is Illuminated

Today's Extremes

State Highs State Lows

Community

WunderPhotos

Upload Photos

1,791,871 photos uploaded!

WunderBlogs® & News

Nearby

Air Quality

  Air Quality AQ Index Pollutant
Not available.

Snow Depth

Station Depth Elevation

Earthquake Activity

City Distance Mag. Time & Date
Minimum magnitude displayed is 2.5.

Coastal Water Temperatures

Place Temperature

Nearby Weather Stations